Time;durP1;ratioP1;P1;durP2;ratioP2;P2;SDS_P1;SDS_P2;PMS_P1;PMS_P2;Temp;Humidity;BMP_temperature;BMP_pressure;BME280_temperature;BME280_humidity;BME280_pressure;Samples;Min_cycle;Max_cycle;Signal;HPM_P1;HPM_P2
2022/08/13 00:00:19;;;;;;;1.85;1.75;;;15.80;90.00;;;;;;5031200;28;19948;-81
2022/08/13 00:02:45;;;;;;;1.95;1.83;;;15.70;90.10;;;;;;5032666;28;20500;-81
2022/08/13 00:05:11;;;;;;;2.38;1.80;;;15.80;90.00;;;;;;5025014;28;20041;-82
2022/08/13 00:07:38;;;;;;;2.45;2.15;;;15.70;90.10;;;;;;5006111;28;20022;-83
2022/08/13 00:10:09;;;;;;;3.15;2.30;;;15.70;90.20;;;;;;5022128;28;20074;-82
2022/08/13 00:15:35;;;;;;;4.88;2.60;;;15.70;90.30;;;;;;5023540;28;20048;-81
2022/08/13 00:18:11;;;;;;;1.70;1.60;;;15.60;90.50;;;;;;5012131;28;20032;-82
2022/08/13 00:20:44;;;;;;;2.65;2.05;;;15.60;90.60;;;;;;5020071;28;20030;-82
2022/08/13 00:23:13;;;;;;;2.53;2.25;;;15.60;90.70;;;;;;5020141;28;20232;-81
2022/08/13 00:25:40;;;;;;;2.53;2.30;;;15.60;90.80;;;;;;5002548;28;20062;-81
2022/08/13 00:28:05;;;;;;;4.47;2.42;;;15.50;91.00;;;;;;5018949;28;20037;-82
2022/08/13 00:30:34;;;;;;;2.58;2.17;;;15.50;91.10;;;;;;5019108;28;20098;-82
2022/08/13 00:33:01;;;;;;;5.75;2.13;;;15.50;91.40;;;;;;5020121;28;20026;-82
2022/08/13 00:35:28;;;;;;;3.50;2.08;;;15.50;91.60;;;;;;5020094;28;20018;-81
2022/08/13 00:37:57;;;;;;;2.83;2.30;;;15.40;91.70;;;;;;5027241;28;20057;-81
2022/08/13 00:40:24;;;;;;;3.28;2.90;;;15.50;91.80;;;;;;5017476;28;20014;-82
2022/08/13 00:42:51;;;;;;;2.20;1.98;;;15.40;91.80;;;;;;5016706;28;20023;-81
2022/08/13 00:45:17;;;;;;;3.67;2.30;;;15.50;91.90;;;;;;5023002;28;20026;-82
2022/08/13 00:50:27;;;;;;;2.50;2.25;;;15.40;92.10;;;;;;5018662;28;20033;-82
2022/08/13 00:52:53;;;;;;;5.25;3.00;;;15.30;92.20;;;;;;5020190;28;20107;-82
2022/08/13 00:55:20;;;;;;;2.88;2.03;;;15.30;92.50;;;;;;5019918;28;20042;-82
2022/08/13 00:57:48;;;;;;;2.85;2.10;;;15.30;92.50;;;;;;5020259;28;20137;-81
2022/08/13 01:00:17;;;;;;;2.78;2.58;;;15.30;92.40;;;;;;5020269;28;20026;-81
2022/08/13 01:02:47;;;;;;;2.30;2.10;;;15.40;92.30;;;;;;5019855;28;20021;-82
2022/08/13 01:05:13;;;;;;;3.45;1.95;;;15.40;92.30;;;;;;5019396;28;20033;-82
2022/08/13 01:07:41;;;;;;;2.53;2.28;;;15.40;92.20;;;;;;5000934;28;20034;-82
2022/08/13 01:10:09;;;;;;;2.53;2.00;;;15.40;92.20;;;;;;5002271;28;20053;-82
2022/08/13 01:12:37;;;;;;;1.75;1.60;;;15.40;92.30;;;;;;5021530;28;20026;-81
2022/08/13 01:15:05;;;;;;;2.67;2.08;;;15.40;92.40;;;;;;5002492;28;20037;-82
2022/08/13 01:17:35;;;;;;;2.13;1.90;;;15.30;92.50;;;;;;5010929;28;20062;-82
2022/08/13 01:20:02;;;;;;;1.48;1.38;;;15.30;92.50;;;;;;5018215;28;20025;-82
2022/08/13 01:22:29;;;;;;;1.52;1.42;;;15.30;92.50;;;;;;5018999;28;20032;-82
2022/08/13 01:24:55;;;;;;;2.63;1.73;;;15.40;92.40;;;;;;5019038;28;20048;-82
2022/08/13 01:27:25;;;;;;;1.58;1.48;;;15.40;92.30;;;;;;5002196;28;20030;-82
2022/08/13 01:29:51;;;;;;;1.95;1.58;;;15.40;92.20;;;;;;5021115;28;20041;-81
2022/08/13 01:32:21;;;;;;;1.38;1.27;;;15.40;92.00;;;;;;5013415;28;20022;-82
2022/08/13 01:34:50;;;;;;;1.83;1.70;;;15.40;91.90;;;;;;5031887;28;20104;-81
2022/08/13 01:37:17;;;;;;;1.90;1.70;;;15.50;91.60;;;;;;5034257;28;20033;-81
2022/08/13 01:39:44;;;;;;;1.83;1.73;;;15.50;91.30;;;;;;5019563;28;20030;-82
2022/08/13 01:42:20;;;;;;;1.92;1.75;;;15.50;91.30;;;;;;5030965;28;20025;-81
2022/08/13 01:44:47;;;;;;;4.55;1.80;;;15.50;91.10;;;;;;5015392;28;20046;-81
2022/08/13 01:52:42;;;;;;;3.28;1.98;;;15.60;90.80;;;;;;5020803;28;20029;-81
2022/08/13 01:55:08;;;;;;;1.80;1.70;;;15.60;90.70;;;;;;5026356;28;20022;-82
2022/08/13 01:57:40;;;;;;;2.65;2.10;;;15.60;90.70;;;;;;5007589;28;20048;-82
2022/08/13 02:00:08;;;;;;;3.83;1.95;;;15.50;90.70;;;;;;5029597;28;20148;-82
2022/08/13 02:02:34;;;;;;;1.55;1.45;;;15.50;90.70;;;;;;5003577;28;20401;-82
2022/08/13 02:05:00;;;;;;;1.80;1.70;;;15.50;90.80;;;;;;5021249;28;20025;-81
2022/08/13 02:07:25;;;;;;;1.88;1.65;;;15.40;90.80;;;;;;5038074;28;20044;-81
2022/08/13 02:09:52;;;;;;;1.90;1.70;;;15.40;90.90;;;;;;5026720;28;20477;-82
2022/08/13 02:12:18;;;;;;;2.30;2.05;;;15.40;90.90;;;;;;5004069;28;20018;-81
2022/08/13 02:14:43;;;;;;;3.13;1.92;;;15.40;90.80;;;;;;5023390;28;20036;-81
2022/08/13 02:17:25;;;;;;;2.40;2.20;;;15.40;90.80;;;;;;5015651;28;20114;-82
2022/08/13 02:19:55;;;;;;;2.58;2.30;;;15.40;90.80;;;;;;5006215;28;20109;-83
2022/08/13 02:22:22;;;;;;;4.35;2.70;;;15.30;90.90;;;;;;5022169;28;20022;-82
2022/08/13 02:24:53;;;;;;;2.17;1.95;;;15.40;90.80;;;;;;5006103;28;20037;-82
2022/08/13 02:27:21;;;;;;;3.80;1.80;;;15.30;90.80;;;;;;5004748;28;20052;-82
2022/08/13 02:29:49;;;;;;;1.70;1.60;;;15.30;90.70;;;;;;5022077;28;20022;-82
2022/08/13 02:32:16;;;;;;;1.70;1.58;;;15.30;90.70;;;;;;5021910;28;20052;-83
2022/08/13 02:34:46;;;;;;;1.70;1.58;;;15.30;90.70;;;;;;5024791;28;20014;-82
2022/08/13 02:37:15;;;;;;;1.75;1.65;;;15.30;90.70;;;;;;5009595;28;20021;-81
2022/08/13 02:39:42;;;;;;;1.88;1.75;;;15.30;90.80;;;;;;5009805;28;20064;-81
2022/08/13 02:42:09;;;;;;;1.88;1.77;;;15.20;90.90;;;;;;5022638;28;20112;-81
2022/08/13 02:44:35;;;;;;;2.25;1.70;;;15.20;90.90;;;;;;5002793;28;20068;-81
2022/08/13 02:47:04;;;;;;;1.85;1.60;;;15.10;91.10;;;;;;5011996;28;20366;-82
2022/08/13 02:49:31;;;;;;;2.05;1.42;;;15.10;91.10;;;;;;5002053;28;20468;-82
2022/08/13 02:51:58;;;;;;;1.77;1.67;;;15.10;91.20;;;;;;5003603;28;20034;-81
2022/08/13 02:54:25;;;;;;;1.67;1.58;;;15.00;91.30;;;;;;5022909;28;20018;-82
2022/08/13 02:56:51;;;;;;;1.88;1.42;;;15.00;91.40;;;;;;5023437;28;20514;-81
2022/08/13 02:59:17;;;;;;;2.28;1.80;;;15.00;91.50;;;;;;5024210;28;20030;-82
2022/08/13 03:01:45;;;;;;;1.90;1.38;;;15.00;91.60;;;;;;5023975;28;20034;-82
2022/08/13 03:04:14;;;;;;;3.65;2.03;;;15.00;91.70;;;;;;5007007;28;20037;-81
2022/08/13 03:06:42;;;;;;;1.83;1.73;;;15.00;91.70;;;;;;5024896;28;20558;-82
2022/08/13 03:09:08;;;;;;;3.08;1.70;;;14.90;91.80;;;;;;5004951;28;20030;-82
2022/08/13 03:11:33;;;;;;;2.67;1.90;;;14.90;91.70;;;;;;5021828;28;20034;-82
2022/08/13 03:16:27;;;;;;;1.80;1.70;;;14.80;91.50;;;;;;5010912;28;20460;-83
2022/08/13 03:19:02;;;;;;;2.75;1.30;;;14.80;91.30;;;;;;5005753;28;20030;-83
2022/08/13 03:21:32;;;;;;;1.70;1.60;;;14.80;90.80;;;;;;4988334;28;20053;-83
2022/08/13 03:24:03;;;;;;;1.27;1.17;;;14.80;90.70;;;;;;5006002;28;20054;-83
2022/08/13 03:26:31;;;;;;;1.65;1.55;;;14.80;91.10;;;;;;4977714;28;20073;-82
2022/08/13 03:28:58;;;;;;;1.83;1.60;;;14.80;91.10;;;;;;5009047;28;20100;-83
2022/08/13 03:31:27;;;;;;;1.85;1.45;;;14.80;91.10;;;;;;4989718;28;20022;-82
2022/08/13 03:33:54;;;;;;;1.73;1.52;;;14.80;91.00;;;;;;4976999;28;20011;-82
2022/08/13 03:36:21;;;;;;;1.85;1.63;;;14.70;91.00;;;;;;4978673;28;20030;-82
2022/08/13 03:38:47;;;;;;;1.52;1.42;;;14.70;90.90;;;;;;4977925;28;20075;-82
2022/08/13 03:42:00;;;;;;;1.50;1.40;;;14.70;90.90;;;;;;4971309;28;20043;-82
2022/08/13 03:44:28;;;;;;;1.85;1.73;;;14.70;90.80;;;;;;4989320;28;20049;-82
2022/08/13 03:46:59;;;;;;;2.22;1.10;;;14.70;90.80;;;;;;4968003;28;20039;-83
2022/08/13 03:49:51;;;;;;;1.75;1.65;;;14.70;90.90;;;;;;4973977;29;20079;-86
2022/08/13 03:52:17;;;;;;;2.10;1.52;;;14.60;90.80;;;;;;4956551;28;20045;-82
2022/08/13 03:54:45;;;;;;;2.10;1.95;;;14.60;90.80;;;;;;4970309;28;20428;-82
2022/08/13 03:57:12;;;;;;;1.25;1.15;;;14.60;91.00;;;;;;4969489;28;20022;-82
2022/08/13 03:59:38;;;;;;;1.67;1.55;;;14.60;91.10;;;;;;4972587;28;20465;-84
2022/08/13 04:02:04;;;;;;;1.35;1.33;;;14.60;91.20;;;;;;4969651;28;20034;-84
2022/08/13 04:04:55;;;;;;;2.38;1.58;;;14.60;91.10;;;;;;4972998;28;20036;-83
2022/08/13 04:07:21;;;;;;;2.97;2.20;;;14.60;91.10;;;;;;4996614;28;20031;-82
2022/08/13 04:09:48;;;;;;;1.60;1.50;;;14.60;91.10;;;;;;4971094;28;20027;-82
2022/08/13 04:12:16;;;;;;;1.38;1.27;;;14.60;91.10;;;;;;4970325;28;20029;-82
2022/08/13 04:14:42;;;;;;;1.77;1.55;;;14.60;91.10;;;;;;4971365;28;20045;-82
2022/08/13 04:17:11;;;;;;;1.70;1.60;;;14.60;91.00;;;;;;4968336;28;20037;-82
2022/08/13 04:19:41;;;;;;;1.88;1.45;;;14.60;90.80;;;;;;4968611;28;20027;-82
2022/08/13 04:22:10;;;;;;;2.83;1.40;;;14.60;90.80;;;;;;4969033;28;20027;-82
2022/08/13 04:24:37;;;;;;;1.67;1.55;;;14.70;90.60;;;;;;4994205;28;20035;-82
2022/08/13 04:27:04;;;;;;;1.73;1.45;;;14.70;90.30;;;;;;4965882;28;20477;-82
2022/08/13 04:29:30;;;;;;;1.40;1.30;;;14.70;90.10;;;;;;4966462;28;20031;-82
2022/08/13 04:32:03;;;;;;;1.83;1.73;;;14.80;90.00;;;;;;4968390;28;20046;-83
2022/08/13 04:34:30;;;;;;;1.27;1.17;;;14.90;89.70;;;;;;4985074;28;20149;-82
2022/08/13 04:36:56;;;;;;;1.63;1.52;;;14.90;89.40;;;;;;4984219;28;20370;-84
2022/08/13 04:39:23;;;;;;;1.65;1.50;;;14.90;89.40;;;;;;4970662;28;20035;-84
2022/08/13 04:41:49;;;;;;;1.90;1.77;;;15.00;88.60;;;;;;4989228;28;20027;-84
2022/08/13 04:44:15;;;;;;;1.90;1.80;;;15.00;88.50;;;;;;4991750;28;20023;-83
2022/08/13 04:46:40;;;;;;;1.50;1.40;;;15.10;88.20;;;;;;4991849;28;20030;-83
2022/08/13 04:49:07;;;;;;;1.30;1.20;;;15.30;87.90;;;;;;4972943;29;20054;-84
2022/08/13 04:51:35;;;;;;;1.83;1.40;;;15.50;87.50;;;;;;4989137;28;20062;-83
2022/08/13 04:54:01;;;;;;;1.77;1.67;;;15.60;86.70;;;;;;5009937;28;20030;-83
2022/08/13 04:56:27;;;;;;;2.35;1.40;;;15.70;85.70;;;;;;5009256;28;20029;-84
2022/08/13 04:58:53;;;;;;;1.92;1.58;;;15.90;85.20;;;;;;4992364;28;20022;-84
2022/08/13 05:01:21;;;;;;;1.38;1.27;;;16.00;84.60;;;;;;5009340;28;20322;-83
2022/08/13 05:03:47;;;;;;;1.40;1.30;;;16.00;84.00;;;;;;5010021;28;20029;-84
2022/08/13 05:06:19;;;;;;;1.48;1.38;;;16.10;83.70;;;;;;5011865;28;20010;-83
2022/08/13 05:08:49;;;;;;;1.50;1.40;;;16.00;83.00;;;;;;5016499;28;20037;-84
2022/08/13 05:11:15;;;;;;;2.05;1.65;;;16.00;83.00;;;;;;5016299;28;20102;-84
2022/08/13 05:13:43;;;;;;;2.40;1.50;;;16.00;82.90;;;;;;4982753;28;20022;-84
2022/08/13 05:16:12;;;;;;;1.70;1.60;;;16.00;82.60;;;;;;5004324;28;20027;-84
2022/08/13 05:18:42;;;;;;;1.33;1.23;;;16.00;82.60;;;;;;5000263;28;20122;-83
2022/08/13 05:21:11;;;;;;;1.60;1.50;;;15.90;82.60;;;;;;4996857;28;20026;-84
2022/08/13 05:23:39;;;;;;;1.40;1.30;;;15.90;83.60;;;;;;5005115;28;20095;-83
2022/08/13 05:26:06;;;;;;;1.48;1.38;;;15.80;83.30;;;;;;4968405;28;20030;-85
2022/08/13 05:28:32;;;;;;;1.00;1.00;;;15.80;83.60;;;;;;4968655;29;20031;-84
2022/08/13 05:30:59;;;;;;;1.42;1.33;;;15.80;83.60;;;;;;4951868;29;20042;-84
2022/08/13 05:33:27;;;;;;;2.05;1.75;;;15.70;83.70;;;;;;4980957;28;20027;-84
2022/08/13 05:36:04;;;;;;;1.17;1.17;;;15.80;83.70;;;;;;4988867;28;20034;-83
2022/08/13 05:38:31;;;;;;;1.52;1.42;;;15.80;83.90;;;;;;4970116;28;20023;-84
2022/08/13 05:40:59;;;;;;;1.63;1.52;;;15.80;83.90;;;;;;4988487;28;20047;-84
2022/08/13 05:43:27;;;;;;;2.30;1.67;;;15.90;83.90;;;;;;4972233;28;20041;-85
2022/08/13 05:45:58;;;;;;;2.00;1.80;;;16.00;83.40;;;;;;4988015;28;20034;-85
2022/08/13 05:48:26;;;;;;;3.92;1.80;;;16.10;82.60;;;;;;4988655;28;20047;-85
2022/08/13 05:50:52;;;;;;;2.38;1.60;;;16.20;82.40;;;;;;4971838;28;20496;-85
2022/08/13 05:53:18;;;;;;;1.77;1.67;;;16.20;82.20;;;;;;4988053;28;20023;-83
2022/08/13 05:55:44;;;;;;;1.88;1.40;;;16.20;82.10;;;;;;4987001;28;20098;-84
2022/08/13 05:58:13;;;;;;;1.70;1.58;;;16.30;82.40;;;;;;4988060;28;20019;-84
2022/08/13 06:03:27;;;;;;;2.53;1.90;;;16.50;81.40;;;;;;4984729;28;20091;-84
2022/08/13 06:05:56;;;;;;;1.60;1.50;;;16.50;81.10;;;;;;4970787;28;20453;-84
2022/08/13 06:08:30;;;;;;;2.78;2.00;;;16.60;81.00;;;;;;4995558;28;20123;-84
2022/08/13 06:11:01;;;;;;;1.95;1.75;;;16.60;80.40;;;;;;4995699;28;20029;-83
2022/08/13 06:13:28;;;;;;;2.05;1.90;;;16.60;80.40;;;;;;4979749;28;20042;-83
2022/08/13 06:15:58;;;;;;;1.65;1.55;;;16.70;80.50;;;;;;4982747;28;20073;-84
2022/08/13 06:18:35;;;;;;;2.13;1.92;;;17.00;80.10;;;;;;4988420;28;20027;-84
2022/08/13 06:21:04;;;;;;;2.17;1.98;;;19.00;76.30;;;;;;5007760;28;20027;-85
2022/08/13 06:23:32;;;;;;;1.52;1.42;;;;;;;;;;4985140;28;20027;-85
2022/08/13 06:25:59;;;;;;;1.17;1.10;;;23.40;64.20;;;;;;4968633;28;20026;-84
2022/08/13 06:28:28;;;;;;;1.05;1.05;;;26.10;57.50;;;;;;4970996;28;20030;-85
2022/08/13 06:30:58;;;;;;;2.08;1.48;;;27.20;52.10;;;;;;4988223;28;20061;-84
2022/08/13 06:33:25;;;;;;;2.47;1.65;;;26.20;50.60;;;;;;4990093;28;20045;-84
2022/08/13 06:35:55;;;;;;;2.08;1.35;;;24.60;51.40;;;;;;4983745;28;20030;-83
2022/08/13 06:38:25;;;;;;;1.33;1.30;;;23.40;54.90;;;;;;4992284;28;20026;-84
2022/08/13 06:40:52;;;;;;;1.48;1.10;;;23.50;56.00;;;;;;5010538;28;20037;-85
2022/08/13 06:43:19;;;;;;;1.08;1.02;;;24.00;55.80;;;;;;4993953;28;20034;-84
2022/08/13 06:45:46;;;;;;;1.52;1.25;;;25.70;53.80;;;;;;5004842;28;20034;-84
2022/08/13 06:48:13;;;;;;;1.42;1.33;;;28.10;51.10;;;;;;4976511;28;20110;-85
2022/08/13 06:50:39;;;;;;;1.05;1.00;;;30.00;47.30;;;;;;4992069;28;20022;-85
2022/08/13 06:53:07;;;;;;;0.90;0.90;;;30.30;45.00;;;;;;4988551;28;20482;-83
2022/08/13 06:55:36;;;;;;;1.10;1.10;;;30.50;44.10;;;;;;4977211;28;20030;-83
2022/08/13 06:58:08;;;;;;;2.88;0.90;;;30.10;44.50;;;;;;5009949;28;20046;-84
2022/08/13 07:00:38;;;;;;;1.65;1.38;;;30.00;44.00;;;;;;5009380;28;20018;-83
2022/08/13 07:03:05;;;;;;;1.55;1.45;;;28.80;43.90;;;;;;5009827;28;20122;-84
2022/08/13 07:05:41;;;;;;;1.13;1.10;;;26.70;46.20;;;;;;5008363;28;20077;-84
2022/08/13 07:08:11;;;;;;;1.20;1.20;;;24.80;49.20;;;;;;4989854;28;20022;-83
2022/08/13 07:10:51;;;;;;;2.83;1.25;;;23.50;52.40;;;;;;5009139;28;20089;-83
2022/08/13 07:13:17;;;;;;;2.45;1.50;;;22.40;54.50;;;;;;4991296;28;20589;-83
2022/08/13 07:15:51;;;;;;;1.45;1.30;;;21.60;56.80;;;;;;4986443;28;20026;-83
2022/08/13 07:18:17;;;;;;;1.40;1.30;;;21.00;58.50;;;;;;4978485;28;20030;-84
2022/08/13 07:20:43;;;;;;;5.03;2.08;;;20.60;59.60;;;;;;5007280;28;20041;-84
2022/08/13 07:23:11;;;;;;;2.53;1.60;;;20.30;60.50;;;;;;4973935;28;20166;-83
2022/08/13 07:25:39;;;;;;;1.45;1.35;;;20.20;61.40;;;;;;4971359;28;20027;-83
2022/08/13 07:28:05;;;;;;;1.85;1.60;;;20.10;61.80;;;;;;4991078;28;20104;-84
2022/08/13 07:30:31;;;;;;;4.95;1.80;;;19.90;62.60;;;;;;4990569;28;20030;-84
2022/08/13 07:32:57;;;;;;;2.15;1.77;;;19.90;62.50;;;;;;5008036;28;20022;-84
2022/08/13 07:35:23;;;;;;;1.40;1.30;;;19.90;62.10;;;;;;5009288;28;20038;-84
2022/08/13 07:37:52;;;;;;;1.45;1.35;;;19.90;62.70;;;;;;4994889;28;20022;-84
2022/08/13 07:40:19;;;;;;;1.40;1.20;;;19.80;62.90;;;;;;5000795;28;20049;-84
2022/08/13 07:42:48;;;;;;;2.25;2.05;;;19.80;62.90;;;;;;5016821;28;20026;-84
2022/08/13 07:45:23;;;;;;;1.90;1.45;;;19.90;63.00;;;;;;4996379;28;20026;-83
2022/08/13 07:47:52;;;;;;;1.35;1.20;;;20.00;63.30;;;;;;4996332;28;20078;-83
2022/08/13 07:50:18;;;;;;;3.08;1.48;;;20.10;63.30;;;;;;4993399;28;20033;-83
2022/08/13 07:52:44;;;;;;;1.27;1.17;;;20.20;63.00;;;;;;4991988;28;20462;-84
2022/08/13 07:55:10;;;;;;;2.03;1.80;;;20.10;63.30;;;;;;4969916;28;20046;-83
2022/08/13 07:57:46;;;;;;;2.85;1.50;;;20.20;63.60;;;;;;4993822;28;20025;-83
2022/08/13 08:00:23;;;;;;;3.22;1.50;;;20.20;63.70;;;;;;5005496;28;20030;-84
2022/08/13 08:03:03;;;;;;;1.40;1.30;;;20.30;63.90;;;;;;5004947;28;20026;-84
2022/08/13 08:05:33;;;;;;;3.72;1.65;;;20.50;63.60;;;;;;5009126;28;20045;-83
2022/08/13 08:08:00;;;;;;;2.35;1.60;;;20.60;62.50;;;;;;5011063;28;20030;-83
2022/08/13 08:10:26;;;;;;;1.40;1.30;;;20.80;62.30;;;;;;4992874;28;20036;-83
2022/08/13 08:12:59;;;;;;;1.70;1.20;;;21.10;61.80;;;;;;5009051;28;20066;-83
2022/08/13 08:15:25;;;;;;;2.10;1.58;;;21.20;61.20;;;;;;5008035;28;20042;-84
2022/08/13 08:17:51;;;;;;;3.80;1.70;;;21.30;61.10;;;;;;5002139;28;20010;-84
2022/08/13 08:20:21;;;;;;;2.40;1.20;;;21.40;60.40;;;;;;4994314;28;20107;-85
2022/08/13 08:22:48;;;;;;;1.55;1.40;;;21.40;60.10;;;;;;4991029;28;20037;-85
2022/08/13 08:25:21;;;;;;;2.03;1.38;;;21.40;60.30;;;;;;4973149;28;20019;-84
2022/08/13 08:27:49;;;;;;;3.80;1.67;;;21.50;60.30;;;;;;4968753;28;20066;-84
2022/08/13 08:30:17;;;;;;;3.50;1.60;;;21.70;60.40;;;;;;5007880;28;20081;-85
2022/08/13 08:32:45;;;;;;;2.63;1.50;;;21.80;60.70;;;;;;5006276;28;20081;-85
2022/08/13 08:35:12;;;;;;;4.68;1.70;;;21.80;60.80;;;;;;5007341;28;20034;-85
2022/08/13 08:43:11;;;;;;;1.30;1.20;;;22.10;58.90;;;;;;4986699;28;20052;-85
2022/08/13 08:45:38;;;;;;;3.67;1.45;;;22.40;58.50;;;;;;4989891;28;20099;-84
2022/08/13 08:48:04;;;;;;;4.75;1.70;;;22.50;57.00;;;;;;4991880;28;20031;-84
2022/08/13 08:50:30;;;;;;;3.88;1.75;;;22.60;57.40;;;;;;4974388;28;20023;-84
2022/08/13 08:55:43;;;;;;;1.45;1.30;;;22.70;57.90;;;;;;4988991;28;20070;-85
2022/08/13 08:58:11;;;;;;;1.30;1.20;;;22.90;57.60;;;;;;4987942;28;20074;-85
2022/08/13 09:00:39;;;;;;;1.55;1.42;;;23.10;57.50;;;;;;4989065;28;20034;-85
2022/08/13 09:03:07;;;;;;;2.88;1.50;;;23.30;57.20;;;;;;4990416;28;20078;-85
2022/08/13 09:05:34;;;;;;;3.63;1.50;;;23.40;56.40;;;;;;4989103;28;20033;-84
2022/08/13 09:08:01;;;;;;;2.70;1.73;;;23.50;56.70;;;;;;4970280;28;20043;-84
2022/08/13 09:10:33;;;;;;;1.45;1.30;;;23.60;56.20;;;;;;4987331;28;20042;-85
2022/08/13 09:13:03;;;;;;;3.17;1.17;;;23.80;55.10;;;;;;4986495;28;20034;-85
2022/08/13 09:15:34;;;;;;;1.90;1.30;;;23.90;55.30;;;;;;5024113;22;20050;-86
2022/08/13 09:18:01;;;;;;;1.30;1.30;;;24.10;55.00;;;;;;5037725;28;20048;-86
2022/08/13 09:20:30;;;;;;;1.90;1.50;;;24.20;54.30;;;;;;5055286;28;20097;-85
2022/08/13 09:23:07;;;;;;;2.83;1.55;;;24.10;54.60;;;;;;5055522;28;20024;-85
2022/08/13 09:25:41;;;;;;;1.73;1.63;;;24.00;54.50;;;;;;5046813;28;20025;-86
2022/08/13 09:28:08;;;;;;;3.53;1.80;;;23.80;54.30;;;;;;5035670;28;20048;-86
2022/08/13 09:30:34;;;;;;;1.75;1.55;;;23.60;55.00;;;;;;5035647;28;20010;-86
2022/08/13 09:33:02;;;;;;;1.30;1.20;;;23.60;55.60;;;;;;5035327;28;20022;-86
2022/08/13 09:35:29;;;;;;;1.55;1.45;;;23.90;55.30;;;;;;5035491;28;20078;-85
2022/08/13 09:37:57;;;;;;;1.73;1.50;;;24.30;55.00;;;;;;5018152;28;20022;-86
2022/08/13 09:40:26;;;;;;;1.52;1.42;;;24.70;53.90;;;;;;5018385;28;20010;-87
2022/08/13 09:43:01;;;;;;;2.80;1.50;;;24.80;53.50;;;;;;5035278;28;20018;-87
2022/08/13 09:45:27;;;;;;;3.80;2.17;;;24.80;52.70;;;;;;5035446;28;20023;-84
2022/08/13 09:47:55;;;;;;;1.77;1.67;;;24.90;53.60;;;;;;5035308;28;20048;-86
2022/08/13 09:50:23;;;;;;;4.07;2.35;;;25.30;53.80;;;;;;5017810;28;20033;-85
2022/08/13 09:52:51;;;;;;;2.58;2.20;;;25.50;53.10;;;;;;5016120;28;20034;-83
2022/08/13 09:55:17;;;;;;;4.88;2.13;;;25.20;53.60;;;;;;5008675;28;20029;-84
2022/08/13 09:58:00;;;;;;;2.58;1.73;;;24.90;54.40;;;;;;5020078;28;20472;-84
2022/08/13 10:00:31;;;;;;;2.58;1.70;;;24.80;54.60;;;;;;5001794;28;20048;-85
2022/08/13 10:03:00;;;;;;;3.47;1.95;;;24.80;54.70;;;;;;5003515;28;20030;-85
2022/08/13 10:05:34;;;;;;;3.28;2.50;;;24.80;54.60;;;;;;5024789;28;20033;-85
2022/08/13 10:08:04;;;;;;;1.60;1.40;;;24.70;54.50;;;;;;5022140;28;20036;-85
2022/08/13 10:10:30;;;;;;;4.38;1.70;;;24.70;55.10;;;;;;5021146;28;20066;-85
2022/08/13 10:12:58;;;;;;;2.45;1.80;;;25.00;54.60;;;;;;5021341;28;20654;-84
2022/08/13 10:15:24;;;;;;;5.45;2.10;;;25.40;53.30;;;;;;5004812;28;20036;-85
2022/08/13 10:17:56;;;;;;;2.67;2.10;;;25.80;52.80;;;;;;5021167;28;20034;-85
2022/08/13 10:20:29;;;;;;;5.13;2.10;;;26.10;52.10;;;;;;5003881;28;20021;-85
2022/08/13 10:22:55;;;;;;;2.55;2.35;;;26.20;51.50;;;;;;5022455;28;20026;-84
2022/08/13 10:25:23;;;;;;;1.95;1.67;;;26.40;51.30;;;;;;5020221;28;20104;-85
2022/08/13 10:27:50;;;;;;;2.83;2.00;;;26.40;51.90;;;;;;5018848;28;20036;-85
2022/08/13 10:30:18;;;;;;;6.13;2.28;;;26.50;51.20;;;;;;5020763;28;20030;-85
2022/08/13 10:32:46;;;;;;;3.83;2.20;;;26.50;50.90;;;;;;5020051;28;20030;-84
2022/08/13 10:35:12;;;;;;;2.17;1.98;;;26.30;51.40;;;;;;5020263;28;20025;-84
2022/08/13 10:37:55;;;;;;;3.85;1.83;;;26.20;50.90;;;;;;5020236;28;20092;-84
2022/08/13 10:40:22;;;;;;;1.83;1.73;;;26.30;51.00;;;;;;5019895;28;20025;-84
2022/08/13 10:42:48;;;;;;;2.72;1.60;;;26.60;49.00;;;;;;5019481;28;20029;-85
2022/08/13 10:45:14;;;;;;;1.88;1.77;;;26.80;48.10;;;;;;5001228;28;20193;-84
2022/08/13 10:47:48;;;;;;;1.50;1.40;;;27.30;47.80;;;;;;5001057;28;20029;-85
2022/08/13 10:50:15;;;;;;;3.17;1.83;;;27.50;47.40;;;;;;5020472;28;20058;-84
2022/08/13 10:52:41;;;;;;;1.77;1.67;;;27.80;47.50;;;;;;5010903;28;20021;-84
2022/08/13 10:55:11;;;;;;;1.80;1.70;;;27.80;47.90;;;;;;5032879;28;20021;-83
2022/08/13 10:57:41;;;;;;;1.60;1.50;;;;;;;;;;5023288;28;20049;-84
2022/08/13 11:00:10;;;;;;;5.28;1.90;;;27.60;44.90;;;;;;5003140;28;20084;-83
2022/08/13 11:02:37;;;;;;;1.77;1.40;;;27.50;46.60;;;;;;5019990;28;20028;-84
2022/08/13 11:05:05;;;;;;;2.17;1.63;;;27.60;46.60;;;;;;5001393;28;20053;-83
2022/08/13 11:07:32;;;;;;;1.50;1.38;;;27.70;45.50;;;;;;5017844;28;20092;-84
2022/08/13 11:09:58;;;;;;;2.05;1.77;;;27.60;46.10;;;;;;5018599;28;20562;-84
2022/08/13 11:12:24;;;;;;;3.63;1.73;;;27.30;46.50;;;;;;5021658;28;20033;-83
2022/08/13 11:14:51;;;;;;;1.40;1.27;;;27.00;47.30;;;;;;5018199;28;20156;-83
2022/08/13 11:17:20;;;;;;;2.38;2.08;;;26.80;47.90;;;;;;4999764;28;20033;-83
2022/08/13 11:19:48;;;;;;;2.35;1.80;;;26.80;47.30;;;;;;5017786;28;20032;-84
2022/08/13 11:22:15;;;;;;;1.70;1.50;;;26.60;46.50;;;;;;4998695;28;20034;-85
2022/08/13 11:24:41;;;;;;;5.47;1.90;;;26.50;47.10;;;;;;4997834;28;20034;-84
2022/08/13 11:27:07;;;;;;;1.60;1.50;;;26.50;47.20;;;;;;5000462;28;20076;-83
2022/08/13 11:29:33;;;;;;;3.03;1.98;;;26.80;47.80;;;;;;5019212;28;20056;-84
2022/08/13 11:31:58;;;;;;;3.15;1.67;;;27.10;47.00;;;;;;5001764;28;20061;-84
2022/08/13 11:34:27;;;;;;;2.92;1.67;;;27.10;46.50;;;;;;5000990;28;20029;-84
2022/08/13 11:36:52;;;;;;;2.13;1.67;;;26.90;47.10;;;;;;5020175;28;20478;-84
2022/08/13 11:39:19;;;;;;;1.75;1.65;;;26.90;45.60;;;;;;5001476;28;20058;-84
2022/08/13 11:41:45;;;;;;;2.83;1.90;;;27.00;46.20;;;;;;5002172;28;20036;-85
2022/08/13 11:44:11;;;;;;;2.05;1.83;;;27.20;46.30;;;;;;5020055;28;20081;-84
2022/08/13 11:46:38;;;;;;;2.30;1.65;;;26.90;46.70;;;;;;5027943;28;20014;-87
2022/08/13 11:49:04;;;;;;;1.70;1.60;;;26.50;47.30;;;;;;5019755;28;20051;-85
2022/08/13 11:51:30;;;;;;;2.33;1.77;;;26.20;47.60;;;;;;5037354;28;20038;-87
2022/08/13 11:53:56;;;;;;;2.90;1.45;;;26.30;47.10;;;;;;5019761;28;20045;-87
2022/08/13 11:56:22;;;;;;;1.92;1.50;;;26.20;46.80;;;;;;5036789;28;20033;-86
2022/08/13 11:58:48;;;;;;;1.80;1.55;;;26.20;46.10;;;;;;5038373;28;20029;-86
2022/08/13 12:01:16;;;;;;;2.28;1.20;;;26.10;46.30;;;;;;5038518;28;20086;-86
2022/08/13 12:03:42;;;;;;;1.45;1.40;;;26.00;45.60;;;;;;5021397;28;20010;-86
2022/08/13 12:06:08;;;;;;;2.15;1.30;;;26.00;46.10;;;;;;5038333;28;20047;-86
2022/08/13 12:08:34;;;;;;;1.35;1.35;;;26.20;45.90;;;;;;5018734;28;20097;-84
2022/08/13 12:11:00;;;;;;;2.17;1.70;;;26.40;45.70;;;;;;5015178;28;20037;-84
2022/08/13 12:13:25;;;;;;;2.55;1.60;;;26.70;44.40;;;;;;5013255;28;20091;-85
2022/08/13 12:15:51;;;;;;;1.45;1.38;;;27.20;44.70;;;;;;5033352;28;20025;-84
2022/08/13 12:18:18;;;;;;;2.50;1.50;;;27.70;44.10;;;;;;5017848;28;20022;-85
2022/08/13 12:20:44;;;;;;;2.67;1.50;;;28.00;42.10;;;;;;4999602;28;20022;-84
2022/08/13 12:23:09;;;;;;;1.45;1.35;;;28.40;41.80;;;;;;5017154;28;20500;-84
2022/08/13 12:25:36;;;;;;;4.53;1.20;;;28.70;41.10;;;;;;5016082;28;20018;-85
2022/08/13 12:28:18;;;;;;;1.50;1.20;;;28.40;40.30;;;;;;5016729;28;20021;-84
2022/08/13 12:30:46;;;;;;;1.20;1.20;;;27.90;41.10;;;;;;5016084;28;20036;-85
2022/08/13 12:33:12;;;;;;;2.03;1.25;;;27.50;41.60;;;;;;5015937;28;20037;-84
2022/08/13 12:35:38;;;;;;;1.00;1.00;;;27.30;41.30;;;;;;5017990;28;20026;-86
2022/08/13 12:38:09;;;;;;;1.35;1.33;;;27.10;41.90;;;;;;5018114;28;20101;-84
2022/08/13 12:40:36;;;;;;;1.55;1.45;;;26.80;42.10;;;;;;5017805;28;20381;-84
2022/08/13 12:43:01;;;;;;;1.67;1.45;;;26.70;42.50;;;;;;5018006;28;20046;-85
2022/08/13 12:45:27;;;;;;;1.42;1.10;;;26.80;43.40;;;;;;5000444;28;20036;-86
2022/08/13 12:47:53;;;;;;;1.98;1.20;;;26.80;43.50;;;;;;5018751;28;20148;-85
2022/08/13 12:50:19;;;;;;;2.63;1.25;;;26.80;43.50;;;;;;5000003;28;20555;-85
2022/08/13 12:52:45;;;;;;;1.15;1.10;;;26.70;43.00;;;;;;5028434;28;20002;-86
2022/08/13 12:55:10;;;;;;;2.22;1.50;;;26.60;43.80;;;;;;5031528;28;20094;-87
2022/08/13 12:57:40;;;;;;;1.20;1.20;;;26.60;44.30;;;;;;5005164;28;20036;-85
2022/08/13 13:00:10;;;;;;;1.35;1.25;;;26.80;44.20;;;;;;5003022;28;20121;-86
2022/08/13 13:02:37;;;;;;;1.38;1.27;;;26.90;44.50;;;;;;5035671;28;20057;-87
2022/08/13 13:05:03;;;;;;;2.10;1.70;;;27.00;44.70;;;;;;5036089;28;20045;-86
2022/08/13 13:07:28;;;;;;;1.67;1.58;;;27.00;44.00;;;;;;5035770;28;20527;-86
2022/08/13 13:09:54;;;;;;;1.55;1.45;;;26.90;44.00;;;;;;5020820;28;20097;-86
2022/08/13 13:12:20;;;;;;;1.80;1.40;;;26.90;43.90;;;;;;5055798;28;20017;-86
2022/08/13 13:14:45;;;;;;;1.48;1.38;;;26.80;43.70;;;;;;5045807;28;20038;-84
2022/08/13 13:17:11;;;;;;;1.40;1.35;;;26.80;44.50;;;;;;5040691;28;20046;-84